Time;durP1;ratioP1;P1;durP2;ratioP2;P2;SDS_P1;SDS_P2;PMS_P1;PMS_P2;Temp;Humidity;BMP_temperature;BMP_pressure;BME280_temperature;BME280_humidity;BME280_pressure;Samples;Min_cycle;Max_cycle;Signal;HPM_P1;HPM_P2
2021/10/10 00:00:08;;;;;;;;;44.50;37.75;;;;;15.46;49.18;102124.69;5081850;27;47111;-57
2021/10/10 00:02:34;;;;;;;;;46.00;37.25;;;;;15.43;49.58;102122.06;5100237;27;45390;-57
2021/10/10 00:04:59;;;;;;;;;45.00;36.25;;;;;15.39;49.44;102118.56;5102450;27;45339;-57
2021/10/10 00:07:24;;;;;;;;;45.75;36.00;;;;;15.37;49.30;102124.78;5088838;27;45194;-56
2021/10/10 00:09:50;;;;;;;;;48.25;39.25;;;;;15.36;49.80;102120.41;5106829;27;45350;-57
2021/10/10 00:12:15;;;;;;;;;41.50;34.75;;;;;15.34;49.65;102128.34;5106932;27;45312;-56
2021/10/10 00:14:40;;;;;;;;;43.25;37.00;;;;;15.34;49.41;102132.78;5107058;27;45450;-57
2021/10/10 00:17:06;;;;;;;;;43.75;35.75;;;;;15.30;49.83;102117.84;5107155;27;45434;-56
2021/10/10 00:19:31;;;;;;;;;41.50;35.25;;;;;15.27;49.78;102116.09;5106724;27;46029;-56
2021/10/10 00:21:56;;;;;;;;;41.25;36.00;;;;;15.25;49.99;102112.59;5106899;27;45353;-56
2021/10/10 00:24:22;;;;;;;;;40.50;35.50;;;;;15.22;49.73;102118.81;5085003;28;46006;-57
2021/10/10 00:26:47;;;;;;;;;43.25;34.50;;;;;15.16;50.01;102121.50;5080355;27;45395;-57
2021/10/10 00:29:12;;;;;;;;;41.75;35.00;;;;;15.19;50.10;102128.53;5106490;27;45313;-56
2021/10/10 00:31:38;;;;;;;;;43.25;36.75;;;;;15.13;49.47;102118.03;5107199;27;45307;-57
2021/10/10 00:34:03;;;;;;;;;42.50;34.50;;;;;15.15;49.66;102126.84;5106834;27;45441;-57
2021/10/10 00:36:30;;;;;;;;;38.00;34.25;;;;;15.11;49.93;102126.00;5106967;27;45307;-56
2021/10/10 00:38:56;;;;;;;;;41.75;32.75;;;;;15.08;50.06;102126.00;5106600;27;45329;-56
2021/10/10 00:41:21;;;;;;;;;39.50;33.50;;;;;15.08;49.87;102133.94;5106681;27;45375;-56
2021/10/10 00:43:46;;;;;;;;;45.25;38.00;;;;;15.05;50.29;102132.22;5106517;27;45417;-56
2021/10/10 00:46:14;;;;;;;;;39.25;34.50;;;;;15.01;50.04;102124.34;5106725;27;45441;-57
2021/10/10 00:48:40;;;;;;;;;39.25;33.25;;;;;14.99;49.77;102128.75;5106585;27;46289;-55
2021/10/10 00:51:06;;;;;;;;;38.25;34.50;;;;;14.97;50.00;102122.59;5106873;27;45258;-55
2021/10/10 00:53:35;;;;;;;;;39.50;34.75;;;;;14.93;50.21;102127.94;5106414;27;45264;-56
2021/10/10 00:56:02;;;;;;;;;40.50;35.25;;;;;14.91;50.23;102129.72;5106436;27;45336;-55
2021/10/10 00:58:28;;;;;;;;;38.25;35.00;;;;;14.90;50.28;102127.09;5105987;27;46385;-54
2021/10/10 01:00:55;;;;;;;;;44.25;35.50;;;;;14.87;50.30;102128.00;5088208;27;45395;-56
2021/10/10 01:03:22;;;;;;;;;42.00;35.00;;;;;14.84;50.21;102121.84;5106314;27;45232;-55
2021/10/10 01:05:48;;;;;;;;;42.50;33.75;;;;;14.82;49.97;102121.88;5088225;27;45558;-54
2021/10/10 01:08:15;;;;;;;;;37.75;34.00;;;;;14.77;50.47;102127.22;5091394;27;47305;-55
2021/10/10 01:10:43;;;;;;;;;40.75;33.75;;;;;14.77;49.98;102127.22;5087942;27;45362;-55
2021/10/10 01:13:09;;;;;;;;;42.75;34.75;;;;;14.74;50.25;102124.59;5106030;27;45342;-55
2021/10/10 01:15:35;;;;;;;;;39.25;35.00;;;;;14.73;50.77;102124.59;5106368;27;45272;-55
2021/10/10 01:18:01;;;;;;;;;46.00;36.50;;;;;14.69;50.17;102122.88;5102598;27;45423;-55
2021/10/10 01:20:27;;;;;;;;;42.00;35.75;;;;;14.69;50.55;102122.88;5102875;27;45355;-56
2021/10/10 01:22:54;;;;;;;;;45.50;38.00;;;;;14.59;50.87;102111.47;5103341;27;45393;-54
2021/10/10 01:25:19;;;;;;;;;41.75;35.00;;;;;14.62;50.69;102117.59;5102832;27;45595;-55
2021/10/10 01:27:44;;;;;;;;;39.00;33.25;;;;;14.63;50.62;102121.16;5102697;27;45885;-56
2021/10/10 01:30:10;;;;;;;;;45.00;35.50;;;;;14.61;50.56;102120.28;5102787;27;45421;-56
2021/10/10 01:32:36;;;;;;;;;41.50;33.75;;;;;14.57;50.76;102113.25;5103094;27;45424;-57
2021/10/10 01:35:02;;;;;;;;;42.00;33.00;;;;;14.57;50.57;102121.19;5101137;27;45281;-57
2021/10/10 01:37:27;;;;;;;;;39.75;33.00;;;;;14.53;50.78;102123.00;5102742;27;45339;-56
2021/10/10 01:39:53;;;;;;;;;36.25;32.75;;;;;14.49;50.66;102113.34;5102723;27;45161;-56
2021/10/10 01:42:18;;;;;;;;;36.00;31.75;;;;;14.49;50.88;102125.66;5102633;27;45189;-56
2021/10/10 01:44:44;;;;;;;;;37.25;31.75;;;;;14.49;50.62;102116.00;5102825;27;45185;-56
2021/10/10 01:47:09;;;;;;;;;43.75;35.00;;;;;14.46;51.04;102116.00;5102618;27;46363;-56
2021/10/10 01:49:38;;;;;;;;;40.25;34.00;;;;;14.43;51.05;102113.38;5102644;27;45258;-55
2021/10/10 01:52:04;;;;;;;;;36.25;31.25;;;;;14.41;50.97;102110.72;5089571;27;45365;-56
2021/10/10 01:54:29;;;;;;;;;44.25;34.50;;;;;14.29;50.73;102095.88;5102506;27;45311;-55
2021/10/10 01:56:55;;;;;;;;;42.50;36.75;;;;;14.35;51.03;102108.16;5101923;27;46021;-57
2021/10/10 01:59:20;;;;;;;;;42.00;35.25;;;;;14.34;50.68;102110.81;5102263;27;45377;-56
2021/10/10 02:01:45;;;;;;;;;40.00;34.50;;;;;14.33;50.80;102109.06;5102522;27;44756;-56
2021/10/10 02:04:11;;;;;;;;;45.25;36.25;;;;;14.29;51.10;102105.56;5102275;27;45425;-56
2021/10/10 02:06:36;;;;;;;;;46.00;38.75;;;;;14.26;51.05;102102.94;5083969;27;46476;-56
2021/10/10 02:09:01;;;;;;;;;43.00;35.50;;;;;14.25;51.21;102101.19;5102255;27;45244;-56
2021/10/10 02:11:27;;;;;;;;;43.00;34.50;;;;;14.22;50.92;102091.50;5102237;27;45321;-56
2021/10/10 02:13:52;;;;;;;;;42.75;35.25;;;;;14.20;51.42;102085.38;5102113;27;45409;-55
2021/10/10 02:16:18;;;;;;;;;43.75;36.00;;;;;14.19;51.17;102090.66;5083763;27;47223;-55
2021/10/10 02:18:45;;;;;;;;;46.50;39.25;;;;;14.16;50.92;102096.84;5083745;27;45258;-56
2021/10/10 02:21:10;;;;;;;;;43.25;36.25;;;;;14.12;51.21;102103.03;5102285;27;45448;-55
2021/10/10 02:23:36;;;;;;;;;42.00;34.50;;;;;14.11;51.18;102096.91;5080316;28;45412;-55
2021/10/10 02:26:01;;;;;;;;;41.00;36.00;;;;;14.10;51.31;102099.53;5088108;27;46206;-55
2021/10/10 02:28:26;;;;;;;;;44.50;34.50;;;;;14.08;51.41;102096.91;5082300;27;45879;-56
2021/10/10 02:30:52;;;;;;;;;46.75;36.75;;;;;14.06;51.25;102090.75;5101987;27;45383;-56
2021/10/10 02:33:18;;;;;;;;;45.75;36.00;;;;;14.05;51.23;102102.22;5101862;27;45377;-55
2021/10/10 02:35:43;;;;;;;;;41.00;35.00;;;;;14.02;51.08;102096.06;5101688;27;46213;-56
2021/10/10 02:38:12;;;;;;;;;37.25;34.50;;;;;14.01;51.61;102105.75;5101867;27;45255;-56
2021/10/10 02:40:38;;;;;;;;;43.75;35.25;;;;;13.99;51.20;102096.97;5102073;27;45181;-56
2021/10/10 02:43:03;;;;;;;;;41.25;35.25;;;;;13.96;51.52;102094.34;5101496;27;45212;-57
2021/10/10 02:45:29;;;;;;;;;45.00;36.00;;;;;13.96;51.82;102095.22;5101605;27;45217;-56
2021/10/10 02:47:54;;;;;;;;;42.50;36.25;;;;;13.93;51.67;102094.38;5101707;27;45159;-56
2021/10/10 02:50:19;;;;;;;;;44.75;37.75;;;;;13.90;51.44;102089.09;5083179;27;45192;-56
2021/10/10 02:52:45;;;;;;;;;46.50;36.75;;;;;13.88;51.40;102090.88;5101655;27;45235;-57
2021/10/10 02:55:10;;;;;;;;;45.75;36.50;;;;;13.89;51.72;102097.94;5101275;27;45346;-56
2021/10/10 02:57:35;;;;;;;;;43.75;35.50;;;;;13.77;51.72;102081.28;5101117;27;45240;-56
2021/10/10 03:00:01;;;;;;;;;47.50;37.25;;;;;13.87;51.40;102099.69;5101480;27;45208;-57
2021/10/10 03:02:26;;;;;;;;;39.50;34.50;;;;;13.85;51.68;102098.81;5101466;27;45142;-57
2021/10/10 03:04:51;;;;;;;;;47.25;38.00;;;;;13.85;51.85;102105.00;5101229;27;46280;-57
2021/10/10 03:07:17;;;;;;;;;46.00;38.25;;;;;13.82;51.71;102105.88;5101306;27;45267;-56
2021/10/10 03:09:42;;;;;;;;;47.75;38.25;;;;;13.82;51.75;102099.72;5101465;27;45272;-57
2021/10/10 03:12:07;;;;;;;;;43.50;37.00;;;;;13.79;51.98;102099.75;5101092;27;45515;-56
2021/10/10 03:14:33;;;;;;;;;46.00;39.00;;;;;13.75;51.49;102090.97;5101100;27;46033;-56
2021/10/10 03:16:58;;;;;;;;;46.00;39.00;;;;;13.75;51.98;102098.88;5101266;27;45382;-56
2021/10/10 03:19:24;;;;;;;;;48.00;39.25;;;;;13.74;51.95;102097.13;5101232;27;45340;-56
2021/10/10 03:21:49;;;;;;;;;45.75;39.00;;;;;13.72;51.95;102101.56;5101159;27;45564;-56
2021/10/10 03:24:14;;;;;;;;;48.75;37.25;;;;;13.69;52.01;102100.69;5101179;27;45393;-57
2021/10/10 03:26:40;;;;;;;;;47.75;39.00;;;;;13.69;52.00;102100.69;5100865;27;45386;-56
2021/10/10 03:29:05;;;;;;;;;47.75;40.00;;;;;13.59;51.79;102084.00;5082589;27;45381;-57
2021/10/10 03:31:30;;;;;;;;;46.00;39.75;;;;;13.64;51.83;102103.34;5101085;27;45469;-56
2021/10/10 03:33:56;;;;;;;;;44.25;36.75;;;;;13.63;51.91;102105.13;5100720;27;45344;-56
2021/10/10 03:36:21;;;;;;;;;46.50;39.50;;;;;13.63;52.11;102096.31;5100794;27;45280;-56
2021/10/10 03:38:46;;;;;;;;;48.25;37.00;;;;;13.52;52.43;102082.28;5100924;27;45227;-56
2021/10/10 03:41:12;;;;;;;;;48.00;39.50;;;;;13.58;52.26;102095.44;5100302;27;45213;-56
2021/10/10 03:43:38;;;;;;;;;51.00;40.75;;;;;13.58;52.05;102106.88;5100401;27;47025;-56
2021/10/10 03:46:04;;;;;;;;;48.00;38.75;;;;;13.57;52.12;102099.88;5101006;27;45243;-56
2021/10/10 03:48:29;;;;;;;;;45.00;37.75;;;;;13.55;52.45;102101.63;5082497;27;45177;-56
2021/10/10 03:50:54;;;;;;;;;49.75;41.00;;;;;13.55;52.12;102108.69;5100713;27;45425;-56
2021/10/10 03:53:23;;;;;;;;;47.75;39.75;;;;;13.51;52.26;102097.25;5100413;27;46503;-55
2021/10/10 03:55:51;;;;;;;;;49.00;39.75;;;;;13.50;52.09;102103.41;5100392;27;45382;-56
2021/10/10 03:58:17;;;;;;;;;49.25;40.00;;;;;13.48;52.33;102099.91;5082012;27;45279;-56
2021/10/10 04:00:42;;;;;;;;;48.75;39.00;;;;;13.46;52.10;102096.41;5082252;27;45262;-56
2021/10/10 04:03:09;;;;;;;;;47.50;38.50;;;;;13.47;52.36;102100.78;5100292;27;45658;-55
2021/10/10 04:08:01;;;;;;;;;50.75;41.00;;;;;13.45;52.55;102113.13;5100533;27;45491;-56
2021/10/10 04:10:27;;;;;;;;;47.25;39.25;;;;;13.42;52.29;102105.19;5100532;27;45474;-56
2021/10/10 04:12:53;;;;;;;;;50.75;41.50;;;;;13.41;52.40;102104.34;5100039;27;45414;-56
2021/10/10 04:15:19;;;;;;;;;51.00;40.25;;;;;13.39;52.60;102108.72;5100253;27;45413;-55
2021/10/10 04:17:45;;;;;;;;;51.75;43.25;;;;;13.38;52.41;102106.09;5100417;27;45263;-55
2021/10/10 04:20:12;;;;;;;;;53.25;40.25;;;;;13.36;52.42;102106.09;5100440;27;45380;-55
2021/10/10 04:22:39;;;;;;;;;51.75;40.50;;;;;13.34;52.60;102107.84;5100121;27;46445;-55
2021/10/10 04:25:06;;;;;;;;;52.50;41.25;;;;;13.30;52.22;102104.34;5100236;27;45236;-55
2021/10/10 04:27:34;;;;;;;;;57.00;44.25;;;;;13.31;52.18;102111.38;5100074;27;45311;-55
2021/10/10 04:30:00;;;;;;;;;50.50;40.50;;;;;13.29;52.61;102109.63;5100218;27;45302;-55
2021/10/10 04:32:25;;;;;;;;;50.25;41.25;;;;;13.27;52.44;102107.00;5100053;27;46336;-54
2021/10/10 04:34:51;;;;;;;;;51.75;42.50;;;;;13.26;52.35;102107.88;5100193;27;45321;-55
2021/10/10 04:37:16;;;;;;;;;52.50;43.25;;;;;13.25;52.39;102111.41;5100042;27;45437;-54
2021/10/10 04:39:42;;;;;;;;;51.50;42.25;;;;;13.23;52.38;102118.47;5100097;27;45174;-55
2021/10/10 04:42:07;;;;;;;;;52.00;41.25;;;;;13.21;52.45;102106.16;5099530;27;45943;-55
2021/10/10 04:44:33;;;;;;;;;53.25;43.75;;;;;13.21;52.76;102111.44;5081703;27;45319;-52
2021/10/10 04:46:58;;;;;;;;;51.75;41.75;;;;;13.20;52.88;102115.81;5081707;27;45257;-55
2021/10/10 04:49:24;;;;;;;;;48.25;39.00;;;;;13.18;52.84;102112.28;5099874;27;45457;-55
2021/10/10 04:51:49;;;;;;;;;52.00;41.00;;;;;13.14;52.58;102110.56;5100525;27;46028;-55
2021/10/10 04:54:14;;;;;;;;;49.75;40.75;;;;;13.13;52.81;102116.72;5103566;27;45236;-54
2021/10/10 04:56:40;;;;;;;;;54.25;43.75;;;;;13.13;52.71;102119.34;5103130;27;45469;-54
2021/10/10 04:59:06;;;;;;;;;50.25;40.75;;;;;13.11;52.95;102126.41;5084925;27;45429;-54
2021/10/10 05:01:32;;;;;;;;;52.00;41.25;;;;;13.10;52.67;102122.00;5103175;27;45278;-55
2021/10/10 05:03:57;;;;;;;;;51.00;42.00;;;;;13.09;52.79;102125.53;5084835;27;45541;-55
2021/10/10 05:06:22;;;;;;;;;52.50;42.25;;;;;13.08;53.02;102126.41;5103396;27;45323;-56
2021/10/10 05:08:48;;;;;;;;;52.00;42.25;;;;;13.06;52.91;102130.84;5103553;27;45369;-55
2021/10/10 05:11:13;;;;;;;;;50.25;41.50;;;;;13.05;53.11;102126.44;5102903;27;45334;-56
2021/10/10 05:13:38;;;;;;;;;56.25;43.50;;;;;13.01;52.71;102128.19;5084768;27;45384;-55
2021/10/10 05:16:04;;;;;;;;;48.75;39.50;;;;;13.01;52.97;102130.84;5103162;27;45429;-55
2021/10/10 05:18:30;;;;;;;;;48.25;41.00;;;;;12.99;52.93;102132.59;5103383;27;45245;-53
2021/10/10 05:20:55;;;;;;;;;52.25;41.50;;;;;12.98;52.75;102133.47;5103010;27;46486;-55
2021/10/10 05:23:21;;;;;;;;;54.50;43.50;;;;;12.95;53.05;102131.72;5102912;27;45420;-55
2021/10/10 05:25:46;;;;;;;;;50.50;42.25;;;;;12.95;52.88;102128.19;5081259;28;45265;-55
2021/10/10 05:28:12;;;;;;;;;53.50;43.50;;;;;12.92;53.04;102131.72;5093689;27;45464;-55
2021/10/10 05:30:37;;;;;;;;;54.25;42.25;;;;;12.91;53.08;102127.31;5102922;27;46143;-56
2021/10/10 05:33:02;;;;;;;;;56.00;43.00;;;;;12.90;53.06;102136.13;5102948;27;45223;-55
2021/10/10 05:35:28;;;;;;;;;51.25;42.75;;;;;12.88;53.11;102127.34;5084319;27;45252;-56
2021/10/10 05:37:53;;;;;;;;;50.00;40.00;;;;;12.80;53.21;102118.56;5091608;27;46101;-55
2021/10/10 05:40:19;;;;;;;;;51.00;42.50;;;;;12.87;52.89;102129.97;5084349;27;47349;-55
2021/10/10 05:42:44;;;;;;;;;54.50;44.00;;;;;12.81;52.92;102128.22;5102415;27;45272;-55
2021/10/10 05:45:10;;;;;;;;;54.25;43.50;;;;;12.85;52.94;102132.59;5102889;27;45300;-55
2021/10/10 05:47:36;;;;;;;;;51.00;41.50;;;;;12.82;53.16;102127.34;5102793;27;45217;-55
2021/10/10 05:50:04;;;;;;;;;59.50;48.00;;;;;12.82;53.00;102132.63;5102443;27;46214;-54
2021/10/10 05:52:29;;;;;;;;;69.25;53.50;;;;;12.80;52.98;102140.56;5102641;27;45266;-54
2021/10/10 05:54:54;;;;;;;;;56.25;44.25;;;;;12.78;53.12;102130.84;5102734;27;45300;-55
2021/10/10 05:57:25;;;;;;;;;51.50;44.00;;;;;12.77;53.20;102139.66;5102037;27;45416;-54
2021/10/10 05:59:55;;;;;;;;;51.75;41.00;;;;;12.75;53.06;102141.41;5102395;27;46148;-55
2021/10/10 06:02:20;;;;;;;;;47.50;39.00;;;;;12.73;53.19;102137.91;5084823;27;45389;-55
2021/10/10 06:04:46;;;;;;;;;51.75;42.25;;;;;12.70;53.31;102143.19;5102540;27;45537;-55
2021/10/10 06:07:11;;;;;;;;;56.25;43.25;;;;;12.66;53.25;102148.44;5102700;27;45379;-54
2021/10/10 06:09:36;;;;;;;;;51.50;43.50;;;;;12.65;53.23;102152.00;5102209;27;46030;-54
2021/10/10 06:12:02;;;;;;;;;55.50;44.75;;;;;12.56;53.18;102151.09;5083802;27;45322;-55
2021/10/10 06:14:29;;;;;;;;;50.25;41.75;;;;;12.60;53.39;102156.38;5102357;27;45170;-55
2021/10/10 06:16:55;;;;;;;;;49.25;41.00;;;;;12.48;53.14;102138.78;5084248;27;45409;-55
2021/10/10 06:19:20;;;;;;;;;53.50;43.75;;;;;12.55;53.18;102150.22;5080368;28;46011;-56
2021/10/10 06:21:45;;;;;;;;;53.50;42.00;;;;;12.55;53.07;102160.75;5092736;27;45176;-55
2021/10/10 06:24:11;;;;;;;;;50.75;41.50;;;;;12.53;53.34;102157.25;5102122;27;45260;-55
2021/10/10 06:26:36;;;;;;;;;52.50;41.50;;;;;12.51;53.10;102159.91;5102034;27;45289;-55
2021/10/10 06:29:01;;;;;;;;;50.50;41.50;;;;;12.50;53.38;102157.25;5101905;27;46408;-54
2021/10/10 06:31:27;;;;;;;;;51.00;40.00;;;;;12.48;53.25;102159.03;5083799;27;45311;-55
2021/10/10 06:33:52;;;;;;;;;56.25;44.25;;;;;12.46;53.52;102156.34;5083771;27;45401;-54
2021/10/10 06:36:20;;;;;;;;;58.00;46.25;;;;;12.45;53.32;102165.16;5102145;27;45251;-55
2021/10/10 06:38:47;;;;;;;;;54.50;44.50;;;;;12.43;53.33;102156.38;5101731;27;46048;-54
2021/10/10 06:41:12;;;;;;;;;57.75;46.00;;;;;12.42;53.38;102164.28;5101712;27;45267;-55
2021/10/10 06:43:38;;;;;;;;;54.00;44.75;;;;;12.34;53.31;102162.50;5101623;27;45538;-54
2021/10/10 06:46:03;;;;;;;;;56.00;45.00;;;;;12.40;53.24;102173.94;5083504;27;45499;-54
2021/10/10 06:48:28;;;;;;;;;56.75;44.75;;;;;12.39;53.45;102172.16;5101668;27;45359;-54
2021/10/10 06:50:54;;;;;;;;;54.00;44.50;;;;;12.39;53.54;102177.44;5101674;27;45271;-51
2021/10/10 06:53:19;;;;;;;;;55.50;44.50;;;;;12.34;53.80;102177.47;5101600;27;45311;-54
2021/10/10 06:55:44;;;;;;;;;59.50;45.75;;;;;12.36;53.50;102178.31;5083128;27;45434;-56
2021/10/10 06:58:10;;;;;;;;;51.00;42.00;;;;;12.35;53.73;102179.19;5101135;27;46013;-56
2021/10/10 07:00:35;;;;;;;;;55.75;45.25;;;;;12.32;53.66;102185.34;5083186;27;45331;-56
2021/10/10 07:03:00;;;;;;;;;65.00;49.25;;;;;12.30;53.50;102184.47;5083224;27;45548;-55
2021/10/10 07:05:26;;;;;;;;;65.25;50.75;;;;;12.32;53.57;102193.25;5083110;27;46034;-55
2021/10/10 07:07:51;;;;;;;;;58.00;46.50;;;;;12.33;53.80;102196.78;5101397;27;46199;-55
2021/10/10 07:10:17;;;;;;;;;54.75;45.25;;;;;12.32;53.68;102195.03;5082970;27;45288;-54
2021/10/10 07:12:42;;;;;;;;;56.75;44.25;;;;;12.32;53.84;102195.88;5096524;27;45300;-53
2021/10/10 07:15:10;;;;;;;;;57.75;45.25;;;;;12.32;53.74;102190.63;5100417;27;45552;-55
2021/10/10 07:17:35;;;;;;;;;56.50;45.50;;;;;12.30;53.89;102181.84;5101086;27;46489;-54
2021/10/10 07:20:26;;;;;;;;;55.25;44.50;;;;;12.35;53.81;102185.38;5101173;27;45349;-55
2021/10/10 07:23:11;;;;;;;;;54.50;45.75;;;;;12.37;53.79;102185.34;5100703;27;45241;-55
2021/10/10 07:25:36;;;;;;;;;56.25;44.25;;;;;12.38;53.94;102192.41;5082567;27;45263;-55
2021/10/10 07:28:02;;;;;;;;;56.00;44.50;;;;;12.42;53.86;102195.91;5082545;27;47154;-55
2021/10/10 07:30:27;;;;;;;;;57.50;46.00;;;;;12.41;53.93;102189.75;5100921;27;45292;-55
2021/10/10 07:32:52;;;;;;;;;54.75;45.00;;;;;12.44;53.83;102194.16;5101220;27;45413;-56
2021/10/10 07:35:18;;;;;;;;;57.50;43.25;;;;;12.45;53.99;102193.28;5100656;27;45339;-56
2021/10/10 07:37:43;;;;;;;;;56.50;44.25;;;;;12.49;54.10;102189.75;5101019;27;45412;-56
2021/10/10 07:40:09;;;;;;;;;57.75;45.75;;;;;12.51;54.08;102190.66;5100619;27;45307;-56
2021/10/10 07:42:35;;;;;;;;;55.25;44.25;;;;;12.53;54.16;102196.81;5100768;27;45356;-55
2021/10/10 07:45:08;;;;;;;;;52.75;44.00;;;;;12.56;54.10;102191.53;5100842;27;45296;-59
2021/10/10 07:47:46;;;;;;;;;58.25;46.00;;;;;12.59;54.16;102191.53;5082277;27;45391;-56
2021/10/10 07:50:13;;;;;;;;;52.75;44.00;;;;;12.60;54.13;102188.03;5100551;27;45511;-57
2021/10/10 07:52:38;;;;;;;;;59.50;47.00;;;;;12.66;54.03;102195.91;5082488;27;45459;-57
2021/10/10 07:55:04;;;;;;;;;54.50;45.00;;;;;12.71;54.12;102189.78;5100542;27;45208;-56
2021/10/10 07:57:30;;;;;;;;;53.00;43.50;;;;;12.73;54.29;102191.53;5100086;27;45533;-56
2021/10/10 07:59:56;;;;;;;;;49.75;40.75;;;;;12.79;54.13;102194.19;5100428;27;45433;-57
2021/10/10 08:02:21;;;;;;;;;50.75;40.25;;;;;12.76;54.41;102196.81;5100883;27;45275;-59
2021/10/10 08:04:46;;;;;;;;;56.25;44.00;;;;;12.88;54.29;102200.31;5100425;27;45613;-57
2021/10/10 08:07:12;;;;;;;;;46.25;39.50;;;;;12.95;54.46;102202.94;5100729;27;46160;-57
2021/10/10 08:09:37;;;;;;;;;48.75;38.75;;;;;12.99;54.09;102209.09;5100338;27;45287;-56
2021/10/10 08:12:03;;;;;;;;;55.00;44.00;;;;;13.05;54.20;102208.22;5100276;27;45737;-57
2021/10/10 08:14:28;;;;;;;;;57.50;44.75;;;;;13.08;54.43;102211.75;5100302;27;45352;-57
2021/10/10 08:16:53;;;;;;;;;52.00;43.75;;;;;13.14;54.32;102203.81;5100161;27;45287;-59
2021/10/10 08:19:19;;;;;;;;;53.50;43.00;;;;;13.23;54.18;102221.41;5100180;27;45464;-57
2021/10/10 08:21:45;;;;;;;;;52.75;40.50;;;;;13.29;54.13;102209.94;5100514;27;45236;-58
2021/10/10 08:24:11;;;;;;;;;50.50;41.75;;;;;13.32;54.29;102200.25;5100179;27;45379;-57
2021/10/10 08:26:36;;;;;;;;;48.75;41.00;;;;;13.43;54.47;102212.59;5083644;27;46166;-58
2021/10/10 08:29:02;;;;;;;;;51.50;41.00;;;;;13.46;54.15;102207.31;5103650;27;45255;-57
2021/10/10 08:31:29;;;;;;;;;53.75;42.75;;;;;13.58;54.29;102209.88;5103989;27;45394;-57
2021/10/10 08:33:54;;;;;;;;;48.00;38.75;;;;;13.60;54.19;102202.84;5103804;27;45291;-58
2021/10/10 08:36:21;;;;;;;;;45.25;36.00;;;;;13.73;54.44;102219.53;5085316;27;47520;-56
2021/10/10 08:38:46;;;;;;;;;52.25;40.25;;;;;13.82;54.45;102218.59;5103667;27;45310;-58
2021/10/10 08:41:13;;;;;;;;;52.25;42.75;;;;;13.91;54.35;102213.31;5103810;27;45300;-57
2021/10/10 08:43:40;;;;;;;;;46.50;38.50;;;;;14.00;54.71;102211.47;5103447;27;45435;-58
2021/10/10 08:46:06;;;;;;;;;47.25;39.75;;;;;14.11;54.15;102220.22;5103725;27;45272;-57
2021/10/10 08:48:32;;;;;;;;;48.75;38.75;;;;;14.21;54.30;102219.28;5103463;27;45438;-57
2021/10/10 08:50:58;;;;;;;;;46.50;39.50;;;;;14.32;54.53;102213.94;5094510;27;45240;-57
2021/10/10 08:53:24;;;;;;;;;47.00;40.00;;;;;14.41;54.23;102205.94;5103350;27;45476;-57
2021/10/10 08:55:51;;;;;;;;;42.50;35.75;;;;;14.53;54.52;102202.34;5103198;27;46256;-57
2021/10/10 08:58:19;;;;;;;;;45.25;38.50;;;;;14.66;54.24;102194.34;5103155;27;45483;-57
2021/10/10 09:00:49;;;;;;;;;47.50;39.25;;;;;14.75;54.23;102189.88;5085306;27;45331;-57
2021/10/10 09:03:16;;;;;;;;;54.25;43.50;;;;;14.91;54.44;102200.31;5100630;27;45257;-57
2021/10/10 09:05:42;;;;;;;;;45.50;39.00;;;;;15.00;53.92;102202.00;5084899;27;45364;-57
2021/10/10 09:08:07;;;;;;;;;49.50;40.00;;;;;15.15;54.39;102207.13;5103277;27;45386;-57
2021/10/10 09:10:33;;;;;;;;;46.50;38.75;;;;;15.26;54.26;102207.91;5103149;27;45310;-57
2021/10/10 09:13:07;;;;;;;;;48.00;39.00;;;;;15.40;54.26;102212.19;5102979;27;45338;-57
2021/10/10 09:15:34;;;;;;;;;45.50;38.00;;;;;15.52;53.85;102217.34;5102962;27;46034;-57
2021/10/10 09:18:02;;;;;;;;;43.50;36.75;;;;;15.65;53.91;102228.66;5103458;27;45316;-57
2021/10/10 09:20:31;;;;;;;;;50.25;38.00;;;;;15.75;53.85;102219.69;5103036;27;45264;-57
2021/10/10 09:22:58;;;;;;;;;48.00;37.00;;;;;15.92;53.93;102224.84;5103215;27;45452;-57
2021/10/10 09:25:23;;;;;;;;;47.75;39.25;;;;;16.05;54.00;102224.66;5102688;27;45539;-57
2021/10/10 09:27:49;;;;;;;;;46.25;37.50;;;;;16.19;53.86;102237.75;5102840;27;45354;-58
2021/10/10 09:30:15;;;;;;;;;45.75;39.00;;;;;16.31;53.85;102234.03;5084760;27;45361;-57
2021/10/10 09:32:44;;;;;;;;;39.75;35.00;;;;;16.46;53.87;102255.03;5102842;27;45420;-57
2021/10/10 09:35:25;;;;;;;;;46.00;39.75;;;;;16.60;53.76;102259.25;5102584;27;46338;-58
2021/10/10 09:40:43;;;;;;;;;48.50;40.25;;;;;16.85;53.69;102236.72;5102736;27;45501;-58
2021/10/10 09:43:08;;;;;;;;;44.25;35.75;;;;;16.99;53.57;102241.84;5102605;27;45401;-58
2021/10/10 09:45:54;;;;;;;;;48.00;37.75;;;;;17.13;53.53;102232.75;5102695;27;46102;-58
2021/10/10 09:48:31;;;;;;;;;35.25;30.50;;;;;17.24;53.47;102217.47;5102676;27;45406;-58
2021/10/10 09:50:57;;;;;;;;;44.00;37.25;;;;;17.41;53.58;102214.50;5102650;27;45393;-58
2021/10/10 09:53:30;;;;;;;;;47.25;38.50;;;;;17.53;53.17;102227.56;5102347;27;45307;-59
2021/10/10 09:55:59;;;;;;;;;45.50;38.00;;;;;17.63;53.14;102220.25;5102232;27;45444;-58
2021/10/10 09:58:42;;;;;;;;;43.25;34.50;;;;;17.81;53.15;102231.41;5102118;27;45315;-58
2021/10/10 10:01:19;;;;;;;;;39.00;35.00;;;;;17.95;53.14;102228.50;5102496;27;45307;-58
2021/10/10 10:04:00;;;;;;;;;42.50;37.25;;;;;18.08;52.86;102229.13;5102439;27;45417;-58
2021/10/10 10:06:27;;;;;;;;;49.00;36.00;;;;;18.21;52.67;102229.72;5102095;27;45367;-58
2021/10/10 10:09:01;;;;;;;;;40.00;35.25;;;;;18.31;52.87;102220.63;5083932;27;45333;-58
2021/10/10 10:11:32;;;;;;;;;38.00;34.50;;;;;18.47;52.42;102234.44;5102047;27;45284;-57
2021/10/10 10:14:01;;;;;;;;;30.00;28.25;;;;;18.57;52.33;102230.66;5101902;27;45503;-57
2021/10/10 10:16:28;;;;;;;;;34.00;30.50;;;;;18.70;52.06;102220.56;5101912;27;46303;-57
2021/10/10 10:18:54;;;;;;;;;35.00;31.25;;;;;18.83;52.25;102226.47;5101904;27;45253;-58
2021/10/10 10:21:20;;;;;;;;;34.50;29.75;;;;;18.97;52.33;102231.47;5102381;27;45351;-58
2021/10/10 10:23:46;;;;;;;;;35.75;30.75;;;;;19.11;52.17;102229.31;5101844;27;45360;-58
2021/10/10 10:26:12;;;;;;;;;35.50;31.00;;;;;19.22;51.84;102222.81;5102029;27;45270;-58
2021/10/10 10:28:38;;;;;;;;;35.00;32.00;;;;;19.38;52.03;102240.13;5101815;27;45437;-58
2021/10/10 10:31:03;;;;;;;;;33.50;31.00;;;;;19.48;51.99;102235.44;5102083;27;45421;-58
2021/10/10 10:33:30;;;;;;;;;41.75;33.75;;;;;19.65;51.36;102238.50;5101829;27;45327;-58
2021/10/10 10:35:56;;;;;;;;;39.00;33.25;;;;;19.78;51.38;102238.13;5080059;28;46600;-58
2021/10/10 10:38:48;;;;;;;;;37.75;32.50;;;;;19.93;51.63;102234.19;5095628;27;45351;-57
2021/10/10 10:41:47;;;;;;;;;56.75;47.50;;;;;20.10;50.84;102233.66;5097282;27;45500;-57
2021/10/10 10:44:35;;;;;;;;;38.50;33.25;;;;;20.23;50.98;102240.38;5101744;27;45208;-57
2021/10/10 10:47:07;;;;;;;;;32.75;30.00;;;;;20.38;51.07;102235.50;5101459;27;46883;-57
2021/10/10 10:49:50;;;;;;;;;36.50;32.50;;;;;20.51;51.15;102239.50;5100239;27;45406;-57
2021/10/10 10:52:38;;;;;;;;;28.75;26.75;;;;;20.64;50.63;102245.31;5089560;27;45301;-57
2021/10/10 10:55:22;;;;;;;;;26.25;26.25;;;;;20.78;50.88;102247.56;5101543;27;45315;-58
2021/10/10 10:57:52;;;;;;;;;38.75;34.25;;;;;20.91;50.58;102248.03;5101138;27;45291;-58
2021/10/10 11:00:40;;;;;;;;;34.00;30.25;;;;;20.99;50.53;102237.06;5101685;27;45500;-58
2021/10/10 11:03:22;;;;;;;;;28.50;28.00;;;;;21.20;50.50;102241.66;5101633;27;45368;-58
2021/10/10 11:05:51;;;;;;;;;31.75;30.25;;;;;21.35;50.25;102236.72;5101336;27;45382;-58
2021/10/10 11:08:16;;;;;;;;;33.25;28.50;;;;;21.51;50.42;102234.31;5101310;27;46391;-58
2021/10/10 11:11:03;;;;;;;;;31.75;30.50;;;;;21.68;50.55;102229.25;5101471;27;45317;-58
2021/10/10 11:13:31;;;;;;;;;33.00;29.00;;;;;21.86;50.18;102240.19;5101235;27;45328;-58